LPPS Airport Information

Runway Information
Runway 01 Length 0 ft width 0 ft
Elevation 240 ft Threshold 0 ft Heading 0
Runway 19 Length 0 ft Width 0 ft
Elevation 341 ft Threshold 0 ft Heading 0
Runway 18 Length 9861 ft width 148 ft
Elevation 240 ft Threshold 0 ft Heading 178
Runway 36 Length 9861 ft Width 148 ft
Elevation 338 ft Threshold 0 ft Heading 358
Airport Frequencies
Type GCA Name GCA Frequency 123.3 MHZ
Type TWR Name TWR Frequency 118.4 MHZ
Airport Navaids
Type NDB Name Porto Santo Frequency 338 KHZ
Type VOR-DME Name Porto Santo Frequency 114900 KHZ
Type TACAN Name Porto Santo Frequency 116300 KHZ
Airport Weather Information & NOTAM
ADDS - METARS form results

(1921 UTC 19 July 2018)
 
METAR text: LPPS 191900Z 01010KT 9999 SCT015 21/15 Q1021
Conditions at: LPPS (PORTO SANTO ISLA, PT) observed 1900 UTC 19 July 2018
Temperature: 21.0°C (70°F)
Dewpoint: 15.0°C (59°F) [RH = 69%]
Pressure (altimeter): 30.15 inches Hg (1021.0 mb)
Winds: from the N (10 degrees) at 12 MPH (10 knots; 5.2 m/s)
Visibility: 6 or more miles (10+ km)
Ceiling: at least 12,000 feet AGL
Clouds: scattered clouds at 1500 feet AGL
Weather: no significant weather observed at this time

METAR text: LPPS 191830Z 02010KT 9999 SCT015 21/15 Q1021
Conditions at: LPPS (PORTO SANTO ISLA, PT) observed 1830 UTC 19 July 2018
Temperature: 21.0°C (70°F)
Dewpoint: 15.0°C (59°F) [RH = 69%]
Pressure (altimeter): 30.15 inches Hg (1021.0 mb)
Winds: from the NNE (20 degrees) at 12 MPH (10 knots; 5.2 m/s)
Visibility: 6 or more miles (10+ km)
Ceiling: at least 12,000 feet AGL
Clouds: scattered clouds at 1500 feet AGL
Weather: no significant weather observed at this time